createdAt,value
2017-06-02T00:00:30.699Z,3.43
2017-06-02T00:02:58.989Z,5.70
2017-06-02T00:05:27.273Z,4.05
2017-06-02T00:07:55.570Z,3.62
2017-06-02T00:10:23.868Z,4.10
2017-06-02T00:12:52.142Z,4.38
2017-06-02T00:15:20.773Z,4.43
2017-06-02T00:17:49.086Z,3.52
2017-06-02T00:20:17.346Z,4.88
2017-06-02T00:22:45.611Z,4.15
2017-06-02T00:25:13.892Z,4.22
2017-06-02T00:27:42.155Z,5.35
2017-06-02T00:30:10.431Z,4.97
2017-06-02T00:32:38.718Z,4.42
2017-06-02T00:35:06.987Z,4.33
2017-06-02T00:37:35.248Z,3.92
2017-06-02T00:40:03.529Z,4.75
2017-06-02T00:42:31.831Z,4.37
2017-06-02T00:45:00.110Z,5.17
2017-06-02T00:47:28.411Z,4.12
2017-06-02T00:49:56.705Z,4.65
2017-06-02T00:52:24.256Z,4.97
2017-06-02T00:54:52.526Z,4.28
2017-06-02T00:57:20.822Z,5.60
2017-06-02T00:59:49.136Z,4.83
2017-06-02T01:02:17.403Z,5.40
2017-06-02T01:04:45.711Z,4.30
2017-06-02T01:07:13.994Z,4.17
2017-06-02T01:09:42.287Z,4.95
2017-06-02T01:12:10.555Z,4.42
2017-06-02T01:14:38.832Z,4.88
2017-06-02T01:17:07.110Z,4.73
2017-06-02T01:19:35.388Z,4.90
2017-06-02T01:22:03.662Z,4.48
2017-06-02T01:24:31.953Z,4.90
2017-06-02T01:27:00.283Z,6.22
2017-06-02T01:29:28.543Z,4.70
2017-06-02T01:31:56.848Z,5.42
2017-06-02T01:34:25.161Z,4.60
2017-06-02T01:36:53.440Z,5.02
2017-06-02T01:39:21.734Z,4.60
2017-06-02T01:41:50.024Z,5.13
2017-06-02T01:44:18.307Z,4.78
2017-06-02T01:46:46.579Z,4.85
2017-06-02T01:49:14.875Z,4.50
2017-06-02T01:51:43.146Z,5.15
2017-06-02T01:54:11.425Z,4.62
2017-06-02T01:56:39.706Z,4.80
2017-06-02T01:59:07.986Z,5.82
2017-06-02T02:01:36.267Z,5.58
2017-06-02T02:04:04.551Z,5.52
2017-06-02T02:06:32.835Z,5.37
2017-06-02T02:09:01.107Z,5.18
2017-06-02T02:11:29.370Z,5.63
2017-06-02T02:13:57.653Z,4.90
2017-06-02T02:16:25.952Z,5.67
2017-06-02T02:18:54.237Z,7.10
2017-06-02T02:21:22.493Z,6.05
2017-06-02T02:23:50.791Z,5.58
2017-06-02T02:26:19.093Z,5.50
2017-06-02T02:28:47.350Z,6.30
2017-06-02T02:31:15.635Z,5.73
2017-06-02T02:33:43.923Z,5.62
2017-06-02T02:36:12.220Z,5.78
2017-06-02T02:38:39.768Z,5.50
2017-06-02T02:41:08.062Z,4.87
2017-06-02T02:43:35.571Z,5.18
2017-06-02T02:46:03.825Z,5.77
2017-06-02T02:48:32.109Z,5.67
2017-06-02T02:51:00.363Z,5.30
2017-06-02T02:53:28.665Z,6.55
2017-06-02T02:55:56.944Z,5.00
2017-06-02T02:58:25.249Z,5.78
2017-06-02T03:00:53.565Z,5.80
2017-06-02T03:03:21.888Z,7.63
2017-06-02T03:23:08.747Z,5.40
2017-06-02T03:25:37.024Z,4.07
2017-06-02T03:28:05.299Z,4.88
2017-06-02T03:30:33.595Z,5.92
2017-06-02T03:33:01.906Z,4.68
2017-06-02T03:35:30.178Z,5.88
2017-06-02T03:37:58.481Z,5.07
2017-06-02T03:40:26.748Z,5.18
2017-06-02T03:42:55.038Z,4.87
2017-06-02T03:45:23.333Z,4.25
2017-06-02T03:47:51.623Z,4.33
2017-06-02T03:50:19.192Z,4.82
2017-06-02T03:52:47.524Z,3.83
2017-06-02T03:55:15.031Z,4.17
2017-06-02T03:57:43.330Z,4.70
2017-06-02T04:00:11.633Z,5.30
2017-06-02T04:02:39.933Z,4.40
2017-06-02T04:05:08.203Z,5.82
2017-06-02T04:07:36.473Z,4.82
2017-06-02T04:10:04.801Z,5.13
2017-06-02T04:12:33.087Z,5.97
2017-06-02T04:15:01.409Z,4.63
2017-06-02T04:17:29.779Z,5.20
2017-06-02T04:19:58.088Z,4.47
2017-06-02T04:22:26.366Z,4.68
2017-06-02T04:24:54.712Z,4.73
2017-06-02T04:27:22.976Z,6.42
2017-06-02T04:29:51.265Z,5.47
2017-06-02T04:32:19.537Z,4.73
2017-06-02T04:34:47.831Z,5.57
2017-06-02T04:37:16.127Z,5.30
2017-06-02T04:39:44.404Z,5.52
2017-06-02T04:42:12.670Z,5.58
2017-06-02T04:44:40.958Z,6.58
2017-06-02T04:47:09.243Z,5.77
2017-06-02T04:49:37.523Z,6.45
2017-06-02T04:52:05.036Z,5.60
2017-06-02T04:54:33.317Z,6.02
2017-06-02T04:57:01.611Z,5.05
2017-06-02T04:59:29.938Z,5.43
2017-06-02T05:01:58.212Z,4.95
2017-06-02T05:04:26.493Z,5.22
2017-06-02T05:06:54.771Z,5.22
2017-06-02T05:09:23.052Z,5.35
2017-06-02T05:11:51.372Z,6.07
2017-06-02T05:14:19.655Z,5.15
2017-06-02T05:16:47.946Z,6.30
2017-06-02T05:19:15.451Z,6.07
2017-06-02T05:21:43.719Z,5.05
2017-06-02T05:24:12.010Z,5.68
2017-06-02T05:26:40.290Z,5.70
2017-06-02T05:29:08.576Z,5.32
2017-06-02T05:31:36.862Z,5.37
2017-06-02T05:34:05.136Z,5.48
2017-06-02T05:36:33.399Z,5.97
2017-06-02T05:39:00.965Z,5.40
2017-06-02T05:41:29.267Z,7.22
2017-06-02T05:43:57.750Z,6.65
2017-06-02T05:46:26.035Z,6.52
2017-06-02T05:48:54.314Z,5.02
2017-06-02T05:51:22.604Z,7.02
2017-06-02T05:53:50.887Z,5.93
2017-06-02T05:56:19.175Z,5.83
2017-06-02T05:58:47.450Z,4.50
2017-06-02T06:01:15.835Z,4.27
2017-06-02T06:03:44.118Z,3.72
2017-06-02T06:06:12.518Z,5.18
2017-06-02T06:08:40.793Z,5.48
2017-06-02T06:11:09.054Z,5.27
2017-06-02T06:13:37.654Z,5.95
2017-06-02T06:16:05.954Z,6.48
2017-06-02T06:18:34.239Z,6.10
2017-06-02T06:21:02.535Z,5.08
2017-06-02T06:23:30.814Z,6.00
2017-06-02T06:25:59.090Z,5.25
2017-06-02T06:28:27.382Z,4.70
2017-06-02T06:30:54.892Z,5.65
2017-06-02T06:33:23.170Z,4.30
2017-06-02T06:35:51.459Z,4.13
2017-06-02T06:38:19.752Z,5.52
2017-06-02T06:40:48.011Z,3.98
2017-06-02T06:43:16.302Z,4.10
2017-06-02T06:45:44.579Z,4.18
2017-06-02T06:48:13.362Z,3.50
2017-06-02T06:50:41.682Z,3.48
2017-06-02T06:53:09.989Z,2.90
2017-06-02T06:55:38.280Z,3.25
2017-06-02T06:58:06.579Z,3.68
2017-06-02T07:00:34.847Z,3.48
2017-06-02T07:03:03.125Z,3.13
2017-06-02T07:05:31.547Z,2.82
2017-06-02T07:07:59.895Z,3.60
2017-06-02T07:10:28.178Z,3.72
2017-06-02T07:12:56.464Z,4.08
2017-06-02T07:15:25.000Z,3.22
2017-06-02T07:17:53.261Z,4.18
2017-06-02T07:20:21.537Z,3.90
2017-06-02T07:22:49.857Z,4.47
2017-06-02T07:25:18.143Z,2.57
2017-06-02T07:27:46.482Z,3.07
2017-06-02T07:30:14.766Z,3.98
2017-06-02T07:32:43.059Z,3.40
2017-06-02T07:35:11.348Z,3.48
2017-06-02T07:37:39.636Z,3.03
2017-06-02T07:40:07.924Z,3.40
2017-06-02T07:42:36.233Z,2.12
2017-06-02T07:45:04.573Z,2.88
2017-06-02T07:47:32.877Z,2.50
2017-06-02T07:50:01.153Z,2.98
2017-06-02T07:52:29.463Z,2.77
2017-06-02T07:54:57.756Z,2.13
2017-06-02T07:57:26.054Z,3.47
2017-06-02T07:59:54.341Z,2.38
2017-06-02T08:02:22.638Z,2.02
2017-06-02T08:04:50.911Z,1.88
2017-06-02T08:07:19.189Z,1.90
2017-06-02T08:09:47.528Z,2.05
2017-06-02T08:12:15.822Z,3.13
2017-06-02T08:14:44.120Z,3.40
2017-06-02T08:17:11.656Z,2.77
2017-06-02T08:19:39.939Z,2.80
2017-06-02T08:22:08.251Z,2.50
2017-06-02T08:24:36.548Z,2.57
2017-06-02T08:27:04.799Z,2.28
2017-06-02T08:29:33.141Z,2.13
2017-06-02T08:32:01.444Z,2.45
2017-06-02T08:34:29.708Z,2.22
2017-06-02T08:36:58.014Z,2.12
2017-06-02T08:39:26.281Z,2.35
2017-06-02T08:41:54.563Z,1.75
2017-06-02T08:44:22.851Z,2.32
2017-06-02T08:46:51.111Z,2.53
2017-06-02T08:49:19.438Z,2.53
2017-06-02T08:51:47.742Z,2.22
2017-06-02T08:54:16.326Z,2.28
2017-06-02T08:56:44.598Z,2.33
2017-06-02T08:59:12.126Z,2.22
2017-06-02T09:01:40.400Z,2.83
2017-06-02T09:04:08.721Z,2.60
2017-06-02T09:06:37.079Z,2.82
2017-06-02T09:09:05.359Z,2.37
2017-06-02T09:11:33.654Z,2.20
2017-06-02T09:14:01.161Z,2.15
2017-06-02T09:16:29.434Z,2.65
2017-06-02T09:18:57.722Z,2.48
2017-06-02T09:21:26.006Z,2.05
2017-06-02T09:23:54.335Z,1.87
2017-06-02T09:26:22.627Z,3.42
2017-06-02T09:28:50.904Z,1.98
2017-06-02T09:31:19.233Z,2.45
2017-06-02T09:33:47.523Z,2.37
2017-06-02T09:36:15.818Z,1.73
2017-06-02T09:38:44.106Z,2.28
2017-06-02T09:41:13.363Z,2.73
2017-06-02T09:43:41.647Z,2.45
2017-06-02T09:46:09.915Z,4.55
2017-06-02T09:48:38.191Z,1.78
2017-06-02T09:51:06.490Z,2.35
2017-06-02T09:53:34.767Z,1.72
2017-06-02T09:56:03.131Z,2.00
2017-06-02T09:58:31.438Z,2.10
2017-06-02T10:00:59.708Z,1.65
2017-06-02T10:03:27.977Z,1.62
2017-06-02T10:23:14.702Z,2.97
2017-06-02T10:25:43.015Z,1.90
2017-06-02T10:28:11.297Z,2.20
2017-06-02T10:30:39.588Z,1.52
2017-06-02T10:33:07.851Z,2.22
2017-06-02T10:35:36.129Z,2.17
2017-06-02T10:38:04.394Z,1.63
2017-06-02T10:40:58.770Z,1.90
2017-06-02T10:43:26.278Z,1.80
2017-06-02T10:45:53.797Z,1.73
2017-06-02T10:48:21.339Z,1.65
2017-06-02T10:50:48.870Z,1.52
2017-06-02T10:53:16.452Z,1.45
2017-06-02T10:55:45.036Z,1.17
2017-06-02T10:58:12.565Z,1.50
2017-06-02T11:00:40.099Z,0.95
2017-06-02T11:03:07.615Z,1.10
2017-06-02T11:05:35.148Z,1.90
2017-06-02T11:08:02.683Z,1.10
2017-06-02T11:10:30.224Z,1.20
2017-06-02T11:12:57.750Z,1.30
2017-06-02T11:15:25.284Z,1.10
2017-06-02T11:17:52.967Z,1.90
2017-06-02T11:20:20.536Z,1.10
2017-06-02T11:22:48.059Z,1.00
2017-06-02T11:25:15.572Z,0.90
2017-06-02T11:27:43.077Z,1.20
2017-06-02T11:30:10.593Z,1.00
2017-06-02T11:32:38.103Z,0.90
2017-06-02T11:35:05.641Z,1.10
2017-06-02T11:37:33.171Z,1.13
2017-06-02T11:40:00.674Z,1.07
2017-06-02T11:42:28.192Z,1.30
2017-06-02T11:44:55.705Z,1.00
2017-06-02T11:47:23.221Z,0.83
2017-06-02T11:49:50.745Z,1.83
2017-06-02T11:52:18.268Z,0.93
2017-06-02T11:54:45.775Z,0.93
2017-06-02T11:57:13.289Z,1.03
2017-06-02T11:59:40.813Z,1.03
2017-06-02T12:02:08.359Z,0.97
2017-06-02T12:04:35.883Z,1.17
2017-06-02T12:07:03.360Z,1.00
2017-06-02T12:09:30.876Z,0.80
2017-06-02T12:11:58.415Z,0.97
2017-06-02T12:14:25.971Z,0.83
2017-06-02T12:16:53.495Z,0.80
2017-06-02T12:19:21.755Z,0.73
2017-06-02T12:21:49.286Z,1.27
2017-06-02T12:24:16.858Z,0.80
2017-06-02T12:26:45.194Z,0.70
2017-06-02T12:29:12.730Z,1.50
2017-06-02T12:31:40.238Z,1.10
2017-06-02T12:34:08.463Z,1.60
2017-06-02T12:36:36.002Z,1.33
2017-06-02T12:39:03.524Z,1.00
2017-06-02T12:41:31.038Z,1.60
2017-06-02T12:43:58.557Z,0.83
2017-06-02T13:03:45.576Z,0.90
2017-06-02T13:06:13.093Z,1.23
2017-06-02T13:08:41.431Z,1.58
2017-06-02T13:11:08.963Z,0.80
2017-06-02T13:13:36.488Z,1.00
2017-06-02T13:16:05.670Z,1.20
2017-06-02T13:18:33.194Z,1.92
2017-06-02T13:21:00.705Z,1.20
2017-06-02T13:23:28.977Z,0.98
2017-06-02T13:25:56.475Z,0.90
2017-06-02T13:28:24.007Z,0.70
2017-06-02T13:30:51.502Z,0.90
2017-06-02T13:33:19.069Z,1.67
2017-06-02T13:35:46.679Z,0.95
2017-06-02T13:38:14.193Z,1.00
2017-06-02T13:40:41.695Z,1.00
2017-06-02T13:43:09.232Z,1.08
2017-06-02T13:45:36.756Z,1.02
2017-06-02T13:48:04.347Z,0.90
2017-06-02T13:50:31.924Z,1.10
2017-06-02T13:52:59.481Z,0.80
2017-06-02T13:55:26.976Z,1.00
2017-06-02T13:57:54.475Z,0.85
2017-06-02T14:00:22.087Z,0.70
2017-06-02T14:02:50.427Z,0.70
2017-06-02T14:05:17.960Z,2.30
2017-06-02T14:07:45.466Z,0.70
2017-06-02T14:10:12.998Z,2.03
2017-06-02T14:12:40.499Z,1.35
2017-06-02T14:15:08.034Z,1.62
2017-06-02T14:17:35.566Z,1.35
2017-06-02T14:20:03.095Z,0.70
2017-06-02T14:22:30.594Z,0.82
2017-06-02T14:24:58.095Z,0.70
2017-06-02T14:27:26.385Z,0.90
2017-06-02T14:29:53.935Z,1.55
2017-06-02T14:32:21.429Z,1.10
2017-06-02T14:34:48.960Z,0.70
2017-06-02T14:37:17.332Z,0.90
2017-06-02T14:39:45.115Z,1.10
2017-06-02T14:42:12.627Z,0.70
2017-06-02T14:44:40.134Z,1.27
2017-06-02T14:47:07.717Z,1.08
2017-06-02T14:49:35.678Z,0.80
2017-06-02T14:52:03.290Z,0.70
2017-06-02T14:54:30.784Z,0.60
2017-06-02T14:56:58.340Z,0.65
2017-06-02T14:59:25.827Z,1.00
2017-06-02T15:01:53.311Z,0.70
2017-06-02T15:04:20.832Z,1.98
2017-06-02T15:06:48.334Z,1.10
2017-06-02T15:09:15.864Z,1.05
2017-06-02T15:11:43.388Z,0.80
2017-06-02T15:14:10.943Z,1.00
2017-06-02T15:16:39.240Z,0.70
2017-06-02T15:19:07.564Z,1.00
2017-06-02T15:21:35.074Z,0.90
2017-06-02T15:24:02.594Z,1.03
2017-06-02T15:26:30.176Z,1.10
2017-06-02T15:28:57.767Z,0.93
2017-06-02T15:31:25.288Z,1.17
2017-06-02T15:33:52.823Z,1.17
2017-06-02T15:36:20.498Z,0.90
2017-06-02T15:38:48.020Z,0.80
2017-06-02T15:41:15.556Z,1.80
2017-06-02T15:43:43.107Z,0.97
2017-06-02T15:46:10.641Z,0.97
2017-06-02T15:48:38.161Z,1.40
2017-06-02T15:51:05.672Z,1.37
2017-06-02T15:53:33.215Z,1.13
2017-06-02T15:56:00.787Z,1.00
2017-06-02T15:58:29.087Z,1.23
2017-06-02T16:00:56.615Z,0.97
2017-06-02T16:03:24.207Z,1.23
2017-06-02T16:05:52.294Z,0.70
2017-06-02T16:08:19.858Z,1.63
2017-06-02T16:10:47.426Z,0.90
2017-06-02T16:13:14.988Z,1.57
2017-06-02T16:15:42.512Z,1.17
2017-06-02T16:18:10.778Z,0.90
2017-06-02T16:20:39.070Z,1.20
2017-06-02T16:23:06.607Z,1.00
2017-06-02T16:25:34.152Z,1.30
2017-06-02T16:28:02.727Z,1.37
2017-06-02T16:30:30.327Z,1.20
2017-06-02T16:32:57.862Z,0.93
2017-06-02T16:35:25.451Z,1.70
2017-06-02T16:37:52.960Z,1.87
2017-06-02T16:40:20.495Z,0.88
2017-06-02T16:42:48.038Z,2.40
2017-06-02T16:45:15.561Z,6.20
2017-06-02T16:47:43.204Z,1.23
2017-06-02T16:50:10.725Z,1.50
2017-06-02T16:52:38.259Z,3.53
2017-06-02T16:55:05.783Z,1.67
2017-06-02T16:57:33.294Z,1.20
2017-06-02T17:00:00.819Z,1.50
2017-06-02T17:02:28.369Z,1.27
2017-06-02T17:04:55.875Z,4.13
2017-06-02T17:07:23.422Z,1.70
2017-06-02T17:09:50.976Z,1.30
2017-06-02T17:12:18.488Z,2.10
2017-06-02T17:14:46.009Z,2.23
2017-06-02T17:19:50.464Z,1.87
2017-06-02T17:22:17.989Z,1.70
2017-06-02T17:24:46.290Z,2.57
2017-06-02T17:27:13.829Z,1.10
2017-06-02T17:29:41.359Z,1.67
2017-06-02T17:32:08.989Z,1.70
2017-06-02T17:34:36.530Z,1.57
2017-06-02T17:37:04.044Z,1.97
2017-06-02T17:39:31.571Z,2.77
2017-06-02T17:41:59.421Z,7.60
2017-06-02T17:44:26.932Z,1.90
2017-06-02T17:46:54.466Z,1.67
2017-06-02T17:49:22.136Z,1.60
2017-06-02T17:51:49.735Z,1.80
2017-06-02T17:54:18.021Z,1.33
2017-06-02T17:56:45.547Z,1.67
2017-06-02T17:59:13.138Z,1.65
2017-06-02T18:01:41.402Z,1.45
2017-06-02T18:04:09.158Z,1.90
2017-06-02T18:06:36.680Z,1.73
2017-06-02T18:09:04.201Z,2.75
2017-06-02T18:11:32.512Z,1.15
2017-06-02T18:14:00.023Z,1.67
2017-06-02T18:16:27.548Z,1.60
2017-06-02T18:18:55.082Z,1.70
2017-06-02T18:21:22.591Z,1.67
2017-06-02T18:23:50.299Z,1.77
2017-06-02T18:26:17.799Z,2.17
2017-06-02T18:28:45.305Z,2.25
2017-06-02T18:31:12.829Z,1.98
2017-06-02T18:33:40.355Z,2.10
2017-06-02T18:36:07.888Z,2.00
2017-06-02T18:38:35.624Z,1.95
2017-06-02T18:41:03.111Z,1.87
2017-06-02T18:43:30.754Z,2.60
2017-06-02T18:45:58.285Z,1.90
2017-06-02T18:48:25.803Z,1.50
2017-06-02T18:50:53.362Z,1.80
2017-06-02T18:53:20.875Z,2.03
2017-06-02T18:55:49.261Z,1.90
2017-06-02T18:58:16.884Z,8.35
2017-06-02T19:00:44.420Z,4.05
2017-06-02T19:03:11.945Z,3.40
2017-06-02T19:05:39.460Z,2.10
2017-06-02T19:08:06.983Z,2.97
2017-06-02T19:10:34.513Z,2.30
2017-06-02T19:13:02.011Z,2.90
2017-06-02T19:15:29.558Z,7.65
2017-06-02T19:17:57.076Z,2.45
2017-06-02T19:20:27.539Z,2.78
2017-06-02T19:22:55.100Z,2.60
2017-06-02T19:25:23.391Z,2.65
2017-06-02T19:27:50.931Z,3.05
2017-06-02T19:30:19.209Z,3.00
2017-06-02T19:32:46.731Z,2.10
2017-06-02T19:35:14.311Z,2.80
2017-06-02T19:37:41.803Z,4.55
2017-06-02T19:40:09.330Z,3.67
2017-06-02T19:42:36.837Z,5.55
2017-06-02T19:45:04.387Z,3.42
2017-06-02T19:47:31.922Z,2.90
2017-06-02T19:49:59.486Z,3.37
2017-06-02T19:52:27.038Z,3.30
2017-06-02T19:54:54.531Z,2.80
2017-06-02T19:57:28.886Z,2.58
2017-06-02T19:59:56.414Z,3.35
2017-06-02T20:02:23.942Z,3.10
2017-06-02T20:04:51.473Z,4.30
2017-06-02T20:07:19.291Z,3.78
2017-06-02T20:09:46.820Z,9.05
2017-06-02T20:12:15.100Z,5.00
2017-06-02T20:14:42.614Z,2.80
2017-06-02T20:17:10.131Z,3.17
2017-06-02T20:19:37.641Z,3.30
2017-06-02T20:22:05.466Z,2.50
2017-06-02T20:24:32.997Z,4.85
2017-06-02T20:27:00.525Z,2.75
2017-06-02T20:29:28.066Z,3.35
2017-06-02T20:31:55.562Z,2.37
2017-06-02T20:34:23.107Z,2.78
2017-06-02T20:36:50.619Z,2.00
2017-06-02T20:39:18.125Z,2.47
2017-06-02T20:41:45.669Z,17.45
2017-06-02T20:44:13.178Z,4.40
2017-06-02T20:46:40.688Z,2.50
2017-06-02T20:49:08.297Z,3.40
2017-06-02T20:51:35.817Z,3.12
2017-06-02T20:54:03.319Z,2.55
2017-06-02T20:56:31.592Z,3.60
2017-06-02T20:58:59.847Z,2.45
2017-06-02T21:01:27.341Z,6.18
2017-06-02T21:03:55.995Z,11.50
2017-06-02T21:06:23.630Z,3.55
2017-06-02T21:08:51.176Z,3.45
2017-06-02T21:11:18.699Z,3.05
2017-06-02T21:13:46.242Z,2.10
2017-06-02T21:16:13.779Z,2.30
2017-06-02T21:18:41.368Z,2.10
2017-06-02T21:21:08.907Z,2.45
2017-06-02T21:23:36.447Z,2.85
2017-06-02T21:26:04.639Z,2.37
2017-06-02T21:28:32.181Z,3.37
2017-06-02T21:30:59.690Z,2.53
2017-06-02T21:33:27.212Z,2.95
2017-06-02T21:35:54.714Z,7.60
2017-06-02T21:38:22.239Z,3.85
2017-06-02T21:40:49.730Z,2.60
2017-06-02T21:43:18.061Z,3.15
2017-06-02T21:45:45.588Z,3.70
2017-06-02T21:48:13.094Z,3.40
2017-06-02T21:50:40.620Z,2.72
2017-06-02T21:53:08.163Z,3.55
2017-06-02T21:55:35.659Z,2.95
2017-06-02T21:58:03.174Z,3.05
2017-06-02T22:00:31.474Z,3.25
2017-06-02T22:02:58.974Z,2.70
2017-06-02T22:05:26.508Z,3.08
2017-06-02T22:07:54.040Z,5.10
2017-06-02T22:10:21.541Z,3.55
2017-06-02T22:12:49.051Z,3.28
2017-06-02T22:15:16.590Z,15.00
2017-06-02T22:17:44.142Z,5.87
2017-06-02T22:20:11.656Z,2.35
2017-06-02T22:22:39.261Z,5.57
2017-06-02T22:25:06.786Z,2.53
2017-06-02T22:27:34.293Z,3.40
2017-06-02T22:30:01.785Z,3.97
2017-06-02T22:32:29.348Z,5.12
2017-06-02T22:34:56.914Z,3.83
2017-06-02T22:37:24.419Z,3.50
2017-06-02T22:39:51.938Z,2.60
2017-06-02T22:42:19.453Z,2.20
2017-06-02T22:44:47.726Z,2.55
2017-06-02T22:47:15.324Z,2.78
2017-06-02T22:49:42.845Z,4.47
2017-06-02T22:52:10.337Z,3.10
2017-06-02T22:54:38.283Z,6.75
2017-06-02T22:57:05.861Z,3.62
2017-06-02T22:59:33.362Z,2.97
2017-06-02T23:02:00.864Z,2.70
2017-06-02T23:04:28.368Z,2.90
2017-06-02T23:06:55.977Z,10.32
2017-06-02T23:09:23.483Z,4.25
2017-06-02T23:11:50.999Z,4.28
2017-06-02T23:14:19.255Z,2.60
2017-06-02T23:16:46.792Z,2.90
2017-06-02T23:19:14.308Z,2.95
2017-06-02T23:21:41.883Z,5.85
2017-06-02T23:24:09.391Z,4.60
2017-06-02T23:26:36.947Z,3.50
2017-06-02T23:29:04.470Z,4.10
2017-06-02T23:31:32.044Z,2.40
2017-06-02T23:33:59.544Z,2.85
2017-06-02T23:36:27.155Z,1.62
2017-06-02T23:38:55.223Z,3.00
2017-06-02T23:41:22.760Z,2.53
2017-06-02T23:43:50.278Z,3.00
2017-06-02T23:46:17.959Z,2.72
2017-06-02T23:48:45.463Z,2.20
2017-06-02T23:51:13.015Z,2.87
2017-06-02T23:53:40.507Z,2.25
2017-06-02T23:56:08.021Z,3.08
2017-06-02T23:58:35.546Z,3.00
